Dades meteomassalio
Diari Summary for Gener 20, 2018 Units:  Both    English   Metric
« Previous Day
Next Day »
Diari Semanal Mensual Anual Personalitzat
  Maxima: Minima: Mijana:
Temperatura: TemperatureC °F /  -17.8 °C 3.3 °F /  -15.9 °C 11.2 °F /  -11.6 °C
Rosada: DewpointC °F /  -17.8 °C -1.8 °F /  -18.8 °C 3.2 °F /  -16 °C
Humitat: Humidity % 35 % 59 %
Velocitat del vent: WindSpeedKMH mph /  0 km/h - 25.3 mph /  40.7 km/h
Racha vent: WindSpeedGustKMH mph /  0 km/h - -
Vent:- - WNW
Pressio: PressurehPa in /  0 hPa 1022.2 in /  34611.7 hPa -
Pluja: 0.0 in /  0 mm    
Historical Graphs
 
 
Tabular Data for Gener 20, 2018
Time Temperature Dew Point Pressure Wind Wind Speed Wind Gust Humidity Rainfall Rate (Hourly) solar Conditions
TemperatureC °F /  -17.8 °C DewpointC °F /  -17.8 °C PressurehPa in /  0 hPa Calm     Humidity % HourlyPrecipMM in /  0 mm SolarRadiationWatts/m^2 W/m2 Conditions
00:02 8.9 °F /  -12.8 °C 3.9 °F /  -15.6 °C 1026.3 in /  34750.5 hPa NW 25.9 mph /  41.7 km/h 25.9 mph /  41.7 km/h 71 % 0.0 in /  0 mm 0.0 W/m2 CLR
00:07 8.3 °F /  -13.2 °C 3.6 °F /  -15.8 °C 1026.3 in /  34750.5 hPa NW 18.5 mph /  29.8 km/h 18.5 mph /  29.8 km/h 72 % 0.0 in /  0 mm 0.0 W/m2 CLR
00:12 8.3 °F /  -13.2 °C 3.8 °F /  -15.7 °C 1026.3 in /  34750.5 hPa NW 18.5 mph /  29.8 km/h 18.5 mph /  29.8 km/h 73 % 0.0 in /  0 mm 0.0 W/m2 CLR
00:17 8.3 °F /  -13.2 °C 3.8 °F /  -15.7 °C 1026.3 in /  34750.5 hPa NW 24.1 mph /  38.8 km/h 24.1 mph /  38.8 km/h 73 % 0.0 in /  0 mm 0.0 W/m2 CLR
00:22 8.3 °F /  -13.2 °C 3.8 °F /  -15.7 °C 1026.3 in /  34750.5 hPa NW 27.8 mph /  44.7 km/h 27.8 mph /  44.7 km/h 73 % 0.0 in /  0 mm 0.0 W/m2 CLR
00:27 8.3 °F /  -13.2 °C 3.8 °F /  -15.7 °C 1026.3 in /  34750.5 hPa WNW 25.9 mph /  41.7 km/h 25.9 mph /  41.7 km/h 73 % 0.0 in /  0 mm 0.0 W/m2 CLR
00:32 8.3 °F /  -13.2 °C 3.8 °F /  -15.7 °C 1026.3 in /  34750.5 hPa NW 20.4 mph /  32.8 km/h 20.4 mph /  32.8 km/h 73 % 0.0 in /  0 mm 0.0 W/m2 CLR
00:37 8.3 °F /  -13.2 °C 3.8 °F /  -15.7 °C 1026.3 in /  34750.5 hPa WNW 22.2 mph /  35.7 km/h 22.2 mph /  35.7 km/h 73 % 0.0 in /  0 mm 0.0 W/m2 CLR
00:42 8.3 °F /  -13.2 °C 3.8 °F /  -15.7 °C 1026.3 in /  34750.5 hPa NNW 25.9 mph /  41.7 km/h 25.9 mph /  41.7 km/h 73 % 0.0 in /  0 mm 0.0 W/m2 CLR
00:47 8.3 °F /  -13.2 °C 3.8 °F /  -15.7 °C 1026.3 in /  34750.5 hPa WNW 22.5 mph /  36.2 km/h 22.5 mph /  36.2 km/h 73 % 0.0 in /  0 mm 0.0 W/m2 CLR
00:52 8.3 °F /  -13.2 °C 3.8 °F /  -15.7 °C 1026.3 in /  34750.5 hPa WNW 24.1 mph /  38.8 km/h 24.1 mph /  38.8 km/h 73 % 0.0 in /  0 mm 0.0 W/m2 CLR
00:57 8.3 °F /  -13.2 °C 3.9 °F /  -15.6 °C 1026.3 in /  34750.5 hPa WSW 11.1 mph /  17.9 km/h 11.1 mph /  17.9 km/h 74 % 0.0 in /  0 mm 0.0 W/m2 CLR
01:02 8.3 °F /  -13.2 °C 3.9 °F /  -15.6 °C 1026.3 in /  34750.5 hPa NW 20.4 mph /  32.8 km/h 20.4 mph /  32.8 km/h 74 % 0.0 in /  0 mm 0.0 W/m2 CLR
01:07 7.8 °F /  -13.4 °C 3.4 °F /  -15.9 °C 1026.3 in /  34750.5 hPa WNW 18.5 mph /  29.8 km/h 18.5 mph /  29.8 km/h 74 % 0.0 in /  0 mm 0.0 W/m2 CLR
01:12 7.8 °F /  -13.4 °C 3.2 °F /  -16 °C 1026.3 in /  34750.5 hPa North 25.9 mph /  41.7 km/h 25.9 mph /  41.7 km/h 73 % 0.0 in /  0 mm 0.0 W/m2 CLR
01:17 7.8 °F /  -13.4 °C 3.2 °F /  -16 °C 1026.3 in /  34750.5 hPa NNW 16.7 mph /  26.9 km/h 16.7 mph /  26.9 km/h 73 % 0.0 in /  0 mm 0.0 W/m2 CLR
01:22 8.3 °F /  -13.2 °C 3.8 °F /  -15.7 °C 1026.0 in /  34740.4 hPa NNW 35.2 mph /  56.6 km/h 35.2 mph /  56.6 km/h 73 % 0.0 in /  0 mm 0.0 W/m2 CLR
01:27 8.3 °F /  -13.2 °C 3.6 °F /  -15.8 °C 1026.0 in /  34740.4 hPa North 22.5 mph /  36.2 km/h 22.5 mph /  36.2 km/h 72 % 0.0 in /  0 mm 0.0 W/m2 CLR
01:32 8.3 °F /  -13.2 °C 3.6 °F /  -15.8 °C 1026.0 in /  34740.4 hPa NW 24.1 mph /  38.8 km/h 24.1 mph /  38.8 km/h 72 % 0.0 in /  0 mm 0.0 W/m2 CLR
01:37 8.3 °F /  -13.2 °C 3.6 °F /  -15.8 °C 1026.0 in /  34740.4 hPa NW 27.8 mph /  44.7 km/h 27.8 mph /  44.7 km/h 72 % 0.0 in /  0 mm 0.0 W/m2 CLR
01:42 8.3 °F /  -13.2 °C 3.6 °F /  -15.8 °C 1026.0 in /  34740.4 hPa WNW 31.5 mph /  50.7 km/h 31.5 mph /  50.7 km/h 72 % 0.0 in /  0 mm 0.0 W/m2 CLR
01:47 8.3 °F /  -13.2 °C 3.6 °F /  -15.8 °C 1026.0 in /  34740.4 hPa NW 24.1 mph /  38.8 km/h 24.1 mph /  38.8 km/h 72 % 0.0 in /  0 mm 0.0 W/m2 CLR
01:52 8.9 °F /  -12.8 °C 4.1 °F /  -15.5 °C 1026.0 in /  34740.4 hPa NNW 38.9 mph /  62.6 km/h 38.9 mph /  62.6 km/h 72 % 0.0 in /  0 mm 0.0 W/m2 CLR
01:57 8.9 °F /  -12.8 °C 4.1 °F /  -15.5 °C 1026.0 in /  34740.4 hPa NW 25.9 mph /  41.7 km/h 25.9 mph /  41.7 km/h 72 % 0.0 in /  0 mm 0.0 W/m2 CLR
02:02 8.3 °F /  -13.2 °C 3.4 °F /  -15.9 °C 1026.3 in /  34750.5 hPa WNW 20.4 mph /  32.8 km/h 20.4 mph /  32.8 km/h 71 % 0.0 in /  0 mm 0.0 W/m2 CLR
02:07 8.3 °F /  -13.2 °C 3.4 °F /  -15.9 °C 1026.0 in /  34740.4 hPa WNW 18.5 mph /  29.8 km/h 18.5 mph /  29.8 km/h 71 % 0.0 in /  0 mm 0.0 W/m2 CLR
02:12 8.3 °F /  -13.2 °C 3.4 °F /  -15.9 °C 1026.0 in /  34740.4 hPa NW 16.7 mph /  26.9 km/h 16.7 mph /  26.9 km/h 71 % 0.0 in /  0 mm 0.0 W/m2 CLR
02:17 7.8 °F /  -13.4 °C 3.1 °F /  -16.1 °C 1026.3 in /  34750.5 hPa NW 25.7 mph /  41.4 km/h 25.7 mph /  41.4 km/h 72 % 0.0 in /  0 mm 0.0 W/m2 CLR
02:22 8.3 °F /  -13.2 °C 3.6 °F /  -15.8 °C 1026.3 in /  34750.5 hPa WNW 22.2 mph /  35.7 km/h 22.2 mph /  35.7 km/h 72 % 0.0 in /  0 mm 0.0 W/m2 CLR
02:27 8.3 °F /  -13.2 °C 3.6 °F /  -15.8 °C 1026.0 in /  34740.4 hPa NW 16.7 mph /  26.9 km/h 16.7 mph /  26.9 km/h 72 % 0.0 in /  0 mm 0.0 W/m2 CLR
02:32 8.3 °F /  -13.2 °C 3.8 °F /  -15.7 °C 1026.0 in /  34740.4 hPa NW 24.1 mph /  38.8 km/h 24.1 mph /  38.8 km/h 73 % 0.0 in /  0 mm 0.0 W/m2 CLR
02:37 8.3 °F /  -13.2 °C 3.8 °F /  -15.7 °C 1026.0 in /  34740.4 hPa NNW 25.9 mph /  41.7 km/h 25.9 mph /  41.7 km/h 73 % 0.0 in /  0 mm 0.0 W/m2 CLR
02:42 7.8 °F /  -13.4 °C 3.2 °F /  -16 °C 1026.0 in /  34740.4 hPa NW 25.9 mph /  41.7 km/h 25.9 mph /  41.7 km/h 73 % 0.0 in /  0 mm 0.0 W/m2 CLR
02:47 7.8 °F /  -13.4 °C 3.4 °F /  -15.9 °C 1026.0 in /  34740.4 hPa NW 22.5 mph /  36.2 km/h 22.5 mph /  36.2 km/h 74 % 0.0 in /  0 mm 0.0 W/m2 CLR
02:52 7.8 °F /  -13.4 °C 3.4 °F /  -15.9 °C 1025.6 in /  34726.8 hPa NW 22.2 mph /  35.7 km/h 22.2 mph /  35.7 km/h 74 % 0.0 in /  0 mm 0.0 W/m2 CLR
02:57 7.8 °F /  -13.4 °C 3.4 °F /  -15.9 °C 1026.0 in /  34740.4 hPa NW 25.9 mph /  41.7 km/h 25.9 mph /  41.7 km/h 74 % 0.0 in /  0 mm 0.0 W/m2 CLR
03:02 7.8 °F /  -13.4 °C 3.4 °F /  -15.9 °C 1026.0 in /  34740.4 hPa NNW 33.3 mph /  53.6 km/h 33.3 mph /  53.6 km/h 74 % 0.0 in /  0 mm 0.0 W/m2 CLR
03:07 7.8 °F /  -13.4 °C 3.4 °F /  -15.9 °C 1025.6 in /  34726.8 hPa NNW 27.8 mph /  44.7 km/h 27.8 mph /  44.7 km/h 74 % 0.0 in /  0 mm 0.0 W/m2 CLR
03:12 7.8 °F /  -13.4 °C 3.4 °F /  -15.9 °C 1026.0 in /  34740.4 hPa NW 27.8 mph /  44.7 km/h 27.8 mph /  44.7 km/h 74 % 0.0 in /  0 mm 0.0 W/m2 CLR
03:17 7.8 °F /  -13.4 °C 3.4 °F /  -15.9 °C 1026.0 in /  34740.4 hPa NW 32.2 mph /  51.8 km/h 32.2 mph /  51.8 km/h 74 % 0.0 in /  0 mm 0.0 W/m2 CLR
03:22 7.8 °F /  -13.4 °C 3.4 °F /  -15.9 °C 1026.0 in /  34740.4 hPa NW 35.2 mph /  56.6 km/h 35.2 mph /  56.6 km/h 74 % 0.0 in /  0 mm 0.0 W/m2 CLR
03:27 7.8 °F /  -13.4 °C 3.2 °F /  -16 °C 1026.0 in /  34740.4 hPa NW 31.5 mph /  50.7 km/h 31.5 mph /  50.7 km/h 73 % 0.0 in /  0 mm 0.0 W/m2 CLR
03:32 7.8 °F /  -13.4 °C 3.2 °F /  -16 °C 1026.0 in /  34740.4 hPa NW 29.0 mph /  46.7 km/h 29.0 mph /  46.7 km/h 73 % 0.0 in /  0 mm 0.0 W/m2 CLR
03:37 7.8 °F /  -13.4 °C 3.2 °F /  -16 °C 1026.3 in /  34750.5 hPa NW 20.4 mph /  32.8 km/h 20.4 mph /  32.8 km/h 73 % 0.0 in /  0 mm 0.0 W/m2 CLR
03:42 7.8 °F /  -13.4 °C 3.2 °F /  -16 °C 1026.3 in /  34750.5 hPa NW 20.9 mph /  33.6 km/h 20.9 mph /  33.6 km/h 73 % 0.0 in /  0 mm 0.0 W/m2 CLR
03:47 7.8 °F /  -13.4 °C 3.2 °F /  -16 °C 1026.0 in /  34740.4 hPa NW 31.5 mph /  50.7 km/h 31.5 mph /  50.7 km/h 73 % 0.0 in /  0 mm 0.0 W/m2 CLR
03:52 7.8 °F /  -13.4 °C 3.2 °F /  -16 °C 1026.0 in /  34740.4 hPa NW 18.5 mph /  29.8 km/h 18.5 mph /  29.8 km/h 73 % 0.0 in /  0 mm 0.0 W/m2 CLR
03:57 7.8 °F /  -13.4 °C 3.2 °F /  -16 °C 1026.0 in /  34740.4 hPa NW 22.2 mph /  35.7 km/h 22.2 mph /  35.7 km/h 73 % 0.0 in /  0 mm 0.0 W/m2 CLR
04:02 7.8 °F /  -13.4 °C 3.2 °F /  -16 °C 1026.0 in /  34740.4 hPa NW 24.1 mph /  38.8 km/h 24.1 mph /  38.8 km/h 73 % 0.0 in /  0 mm 0.0 W/m2 CLR
04:07 7.8 °F /  -13.4 °C 3.2 °F /  -16 °C 1026.0 in /  34740.4 hPa NW 25.9 mph /  41.7 km/h 25.9 mph /  41.7 km/h 73 % 0.0 in /  0 mm 0.0 W/m2 CLR
04:12 7.8 °F /  -13.4 °C 3.2 °F /  -16 °C 1026.0 in /  34740.4 hPa NNW 20.4 mph /  32.8 km/h 20.4 mph /  32.8 km/h 73 % 0.0 in /  0 mm 0.0 W/m2 CLR
04:17 7.8 °F /  -13.4 °C 3.2 °F /  -16 °C 1026.0 in /  34740.4 hPa NNW 18.5 mph /  29.8 km/h 18.5 mph /  29.8 km/h 73 % 0.0 in /  0 mm 0.0 W/m2 CLR
04:22 7.8 °F /  -13.4 °C 3.2 °F /  -16 °C 1026.0 in /  34740.4 hPa WNW 18.5 mph /  29.8 km/h 18.5 mph /  29.8 km/h 73 % 0.0 in /  0 mm 0.0 W/m2 CLR
04:27 7.8 °F /  -13.4 °C 3.2 °F /  -16 °C 1026.0 in /  34740.4 hPa WNW 19.3 mph /  31.1 km/h 19.3 mph /  31.1 km/h 73 % 0.0 in /  0 mm 0.0 W/m2 CLR
04:32 7.8 °F /  -13.4 °C 3.1 °F /  -16.1 °C 1026.0 in /  34740.4 hPa WNW 24.1 mph /  38.8 km/h 24.1 mph /  38.8 km/h 72 % 0.0 in /  0 mm 0.0 W/m2 CLR
04:37 7.8 °F /  -13.4 °C 3.1 °F /  -16.1 °C 1026.0 in /  34740.4 hPa WNW 22.2 mph /  35.7 km/h 22.2 mph /  35.7 km/h 72 % 0.0 in /  0 mm 0.0 W/m2 CLR
04:42 7.8 °F /  -13.4 °C 3.1 °F /  -16.1 °C 1026.0 in /  34740.4 hPa WNW 18.5 mph /  29.8 km/h 18.5 mph /  29.8 km/h 72 % 0.0 in /  0 mm 0.0 W/m2 CLR
04:47 7.8 °F /  -13.4 °C 3.1 °F /  -16.1 °C 1025.6 in /  34726.8 hPa WNW 16.7 mph /  26.9 km/h 16.7 mph /  26.9 km/h 72 % 0.0 in /  0 mm 0.0 W/m2 CLR
04:52 7.2 °F /  -13.8 °C 2.7 °F /  -16.3 °C 1025.6 in /  34726.8 hPa WNW 25.9 mph /  41.7 km/h 25.9 mph /  41.7 km/h 73 % 0.0 in /  0 mm 0.0 W/m2 CLR
04:57 7.2 °F /  -13.8 °C 2.7 °F /  -16.3 °C 1025.6 in /  34726.8 hPa WNW 27.8 mph /  44.7 km/h 27.8 mph /  44.7 km/h 73 % 0.0 in /  0 mm 0.0 W/m2 CLR
05:02 7.2 °F /  -13.8 °C 2.7 °F /  -16.3 °C 1025.6 in /  34726.8 hPa WNW 30.6 mph /  49.2 km/h 30.6 mph /  49.2 km/h 73 % 0.0 in /  0 mm 0.0 W/m2 CLR
05:07 7.2 °F /  -13.8 °C 2.5 °F /  -16.4 °C 1025.6 in /  34726.8 hPa NW 17.7 mph /  28.5 km/h 17.7 mph /  28.5 km/h 72 % 0.0 in /  0 mm 0.0 W/m2 CLR
05:12 7.2 °F /  -13.8 °C 2.7 °F /  -16.3 °C 1025.6 in /  34726.8 hPa NW 25.9 mph /  41.7 km/h 25.9 mph /  41.7 km/h 73 % 0.0 in /  0 mm 0.0 W/m2 CLR
05:17 7.2 °F /  -13.8 °C 2.7 °F /  -16.3 °C 1025.6 in /  34726.8 hPa NW 22.5 mph /  36.2 km/h 22.5 mph /  36.2 km/h 73 % 0.0 in /  0 mm 0.0 W/m2 CLR
05:22 7.8 °F /  -13.4 °C 3.2 °F /  -16 °C 1025.6 in /  34726.8 hPa NW 25.9 mph /  41.7 km/h 25.9 mph /  41.7 km/h 73 % 0.0 in /  0 mm 0.0 W/m2 CLR
05:27 7.8 °F /  -13.4 °C 3.2 °F /  -16 °C 1026.0 in /  34740.4 hPa NW 31.5 mph /  50.7 km/h 31.5 mph /  50.7 km/h 73 % 0.0 in /  0 mm 0.0 W/m2 CLR
05:32 7.8 °F /  -13.4 °C 3.1 °F /  -16.1 °C 1026.0 in /  34740.4 hPa NW 27.8 mph /  44.7 km/h 27.8 mph /  44.7 km/h 72 % 0.0 in /  0 mm 0.0 W/m2 CLR
05:37 7.8 °F /  -13.4 °C 3.1 °F /  -16.1 °C 1026.0 in /  34740.4 hPa WNW 22.2 mph /  35.7 km/h 22.2 mph /  35.7 km/h 72 % 0.0 in /  0 mm 0.0 W/m2 CLR
05:42 7.8 °F /  -13.4 °C 3.1 °F /  -16.1 °C 1026.0 in /  34740.4 hPa NW 16.7 mph /  26.9 km/h 16.7 mph /  26.9 km/h 72 % 0.0 in /  0 mm 0.0 W/m2 CLR
05:47 7.8 °F /  -13.4 °C 3.1 °F /  -16.1 °C 1026.0 in /  34740.4 hPa NW 25.9 mph /  41.7 km/h 25.9 mph /  41.7 km/h 72 % 0.0 in /  0 mm 0.0 W/m2 CLR
05:52 7.8 °F /  -13.4 °C 3.1 °F /  -16.1 °C 1026.0 in /  34740.4 hPa NW 22.5 mph /  36.2 km/h 22.5 mph /  36.2 km/h 72 % 0.0 in /  0 mm 0.0 W/m2 CLR
05:57 7.8 °F /  -13.4 °C 3.1 °F /  -16.1 °C 1026.0 in /  34740.4 hPa NNW 19.3 mph /  31.1 km/h 19.3 mph /  31.1 km/h 72 % 0.0 in /  0 mm 0.0 W/m2 CLR
06:02 7.8 °F /  -13.4 °C 3.1 °F /  -16.1 °C 1026.0 in /  34740.4 hPa NW 20.4 mph /  32.8 km/h 20.4 mph /  32.8 km/h 72 % 0.0 in /  0 mm 0.0 W/m2 CLR
06:07 7.8 °F /  -13.4 °C 2.8 °F /  -16.2 °C 1025.6 in /  34726.8 hPa WNW 20.4 mph /  32.8 km/h 20.4 mph /  32.8 km/h 71 % 0.0 in /  0 mm 0.0 W/m2 CLR
06:12 7.2 °F /  -13.8 °C 2.3 °F /  -16.5 °C 1026.0 in /  34740.4 hPa WNW 18.5 mph /  29.8 km/h 18.5 mph /  29.8 km/h 71 % 0.0 in /  0 mm 0.0 W/m2 CLR
06:18 7.2 °F /  -13.8 °C 2.5 °F /  -16.4 °C 1026.0 in /  34740.4 hPa West 19.3 mph /  31.1 km/h 19.3 mph /  31.1 km/h 72 % 0.0 in /  0 mm 0.0 W/m2 CLR
06:23 7.2 °F /  -13.8 °C 2.5 °F /  -16.4 °C 1026.0 in /  34740.4 hPa WNW 18.5 mph /  29.8 km/h 18.5 mph /  29.8 km/h 72 % 0.0 in /  0 mm 0.0 W/m2 CLR
06:28 7.2 °F /  -13.8 °C 2.5 °F /  -16.4 °C 1026.0 in /  34740.4 hPa WNW 18.5 mph /  29.8 km/h 18.5 mph /  29.8 km/h 72 % 0.0 in /  0 mm 0.0 W/m2 CLR
06:33 7.2 °F /  -13.8 °C 2.3 °F /  -16.5 °C 1026.0 in /  34740.4 hPa WNW 14.8 mph /  23.8 km/h 14.8 mph /  23.8 km/h 71 % 0.0 in /  0 mm 0.0 W/m2 CLR
06:38 7.2 °F /  -13.8 °C 2.3 °F /  -16.5 °C 1026.0 in /  34740.4 hPa West 1.9 mph /  3.1 km/h 2.3 mph /  3.7 km/h 71 % 0.0 in /  0 mm 0.0 W/m2 CLR
06:43 7.2 °F /  -13.8 °C 2.5 °F /  -16.4 °C 1026.0 in /  34740.4 hPa West 14.8 mph /  23.8 km/h 14.8 mph /  23.8 km/h 72 % 0.0 in /  0 mm 0.0 W/m2 CLR
06:48 7.2 °F /  -13.8 °C 2.5 °F /  -16.4 °C 1026.0 in /  34740.4 hPa NW 18.5 mph /  29.8 km/h 18.5 mph /  29.8 km/h 72 % 0.0 in /  0 mm 0.0 W/m2 CLR
06:53 6.7 °F /  -14.1 °C 2.0 °F /  -16.7 °C 1026.0 in /  34740.4 hPa WNW 20.4 mph /  32.8 km/h 20.4 mph /  32.8 km/h 72 % 0.0 in /  0 mm 0.0 W/m2 CLR
06:58 6.7 °F /  -14.1 °C 1.6 °F /  -16.9 °C 1026.3 in /  34750.5 hPa WNW 18.5 mph /  29.8 km/h 18.5 mph /  29.8 km/h 70 % 0.0 in /  0 mm 0.0 W/m2 CLR
07:03 6.7 °F /  -14.1 °C 1.6 °F /  -16.9 °C 1026.0 in /  34740.4 hPa NW 20.9 mph /  33.6 km/h 20.9 mph /  33.6 km/h 70 % 0.0 in /  0 mm 0.0 W/m2 CLR
07:08 6.7 °F /  -14.1 °C 1.6 °F /  -16.9 °C 1026.0 in /  34740.4 hPa NW 18.5 mph /  29.8 km/h 18.5 mph /  29.8 km/h 70 % 0.0 in /  0 mm 0.0 W/m2 CLR
07:13 6.7 °F /  -14.1 °C 1.4 °F /  -17 °C 1026.0 in /  34740.4 hPa NW 18.5 mph /  29.8 km/h 18.5 mph /  29.8 km/h 69 % 0.0 in /  0 mm 0.0 W/m2 CLR
07:18 6.7 °F /  -14.1 °C 1.4 °F /  -17 °C 1026.0 in /  34740.4 hPa WNW 11.3 mph /  18.2 km/h 11.3 mph /  18.2 km/h 69 % 0.0 in /  0 mm 0.0 W/m2 CLR
07:23 6.7 °F /  -14.1 °C 1.4 °F /  -17 °C 1026.0 in /  34740.4 hPa WNW 11.1 mph /  17.9 km/h 11.1 mph /  17.9 km/h 69 % 0.0 in /  0 mm 0.0 W/m2 CLR
07:28 6.7 °F /  -14.1 °C 1.6 °F /  -16.9 °C 1026.0 in /  34740.4 hPa West 11.1 mph /  17.9 km/h 11.1 mph /  17.9 km/h 70 % 0.0 in /  0 mm 0.0 W/m2 CLR
07:33 6.7 °F /  -14.1 °C 1.8 °F /  -16.8 °C 1026.0 in /  34740.4 hPa West 9.7 mph /  15.6 km/h 9.7 mph /  15.6 km/h 71 % 0.0 in /  0 mm 0.0 W/m2 CLR
07:38 6.7 °F /  -14.1 °C 2.0 °F /  -16.7 °C 1026.0 in /  34740.4 hPa WNW 11.3 mph /  18.2 km/h 11.3 mph /  18.2 km/h 72 % 0.0 in /  0 mm 0.0 W/m2 CLR
07:43 6.7 °F /  -14.1 °C 2.2 °F /  -16.6 °C 1026.0 in /  34740.4 hPa WNW 11.1 mph /  17.9 km/h 11.1 mph /  17.9 km/h 73 % 0.0 in /  0 mm 0.0 W/m2 CLR
07:48 6.1 °F /  -14.4 °C 1.8 °F /  -16.8 °C 1026.3 in /  34750.5 hPa WNW 13.0 mph /  20.9 km/h 13.0 mph /  20.9 km/h 74 % 0.0 in /  0 mm 0.0 W/m2 CLR
07:53 6.1 °F /  -14.4 °C 1.8 °F /  -16.8 °C 1026.3 in /  34750.5 hPa WNW 12.9 mph /  20.8 km/h 12.9 mph /  20.8 km/h 74 % 0.0 in /  0 mm 0.0 W/m2 CLR
07:58 5.6 °F /  -14.7 °C 1.1 °F /  -17.2 °C 1026.3 in /  34750.5 hPa WNW 11.1 mph /  17.9 km/h 11.1 mph /  17.9 km/h 73 % 0.0 in /  0 mm 0.0 W/m2 CLR
08:03 5.0 °F /  -15 °C 0.4 °F /  -17.6 °C 1026.3 in /  34750.5 hPa WNW 11.1 mph /  17.9 km/h 11.1 mph /  17.9 km/h 72 % 0.0 in /  0 mm 0.0 W/m2 CLR
08:08 4.4 °F /  -15.3 °C -0.3 °F /  -17.9 °C 1026.3 in /  34750.5 hPa WNW 11.3 mph /  18.2 km/h 11.3 mph /  18.2 km/h 71 % 0.0 in /  0 mm 0.0 W/m2 CLR
08:13 4.4 °F /  -15.3 °C -0.3 °F /  -17.9 °C 1026.3 in /  34750.5 hPa WNW 11.1 mph /  17.9 km/h 11.1 mph /  17.9 km/h 71 % 0.0 in /  0 mm 0.0 W/m2 OVC
08:18 3.9 °F /  -15.6 °C -0.9 °F /  -18.3 °C 1026.6 in /  34760.7 hPa Calm     71 % 0.0 in /  0 mm 5.0 W/m2 OVC
08:23 3.3 °F /  -15.9 °C -1.4 °F /  -18.6 °C 1026.3 in /  34750.5 hPa Calm     71 % 0.0 in /  0 mm 9.0 W/m2 BKN
08:28 3.3 °F /  -15.9 °C -1.2 °F /  -18.4 °C 1026.3 in /  34750.5 hPa Calm     72 % 0.0 in /  0 mm 12.0 W/m2 BKN
08:33 3.3 °F /  -15.9 °C -1.1 °F /  -18.4 °C 1026.3 in /  34750.5 hPa Calm     73 % 0.0 in /  0 mm 18.0 W/m2 BKN
08:38 3.3 °F /  -15.9 °C -0.9 °F /  -18.3 °C 1026.6 in /  34760.7 hPa Calm     74 % 0.0 in /  0 mm 21.0 W/m2 BKN
08:43 3.3 °F /  -15.9 °C -0.9 °F /  -18.3 °C 1026.6 in /  34760.7 hPa WNW 11.3 mph /  18.2 km/h 11.3 mph /  18.2 km/h 74 % 0.0 in /  0 mm 23.0 W/m2 BKN
08:48 3.9 °F /  -15.6 °C -0.7 °F /  -18.2 °C 1026.6 in /  34760.7 hPa WNW 3.7 mph /  6 km/h 3.7 mph /  6 km/h 72 % 0.0 in /  0 mm 25.0 W/m2 BKN
08:53 3.3 °F /  -15.9 °C -1.4 °F /  -18.6 °C 1026.6 in /  34760.7 hPa NW 14.8 mph /  23.8 km/h 14.8 mph /  23.8 km/h 71 % 0.0 in /  0 mm 26.0 W/m2 BKN
08:58 3.3 °F /  -15.9 °C -1.8 °F /  -18.8 °C 1026.3 in /  34750.5 hPa NW 14.8 mph /  23.8 km/h 14.8 mph /  23.8 km/h 69 % 0.0 in /  0 mm 33.0 W/m2 BKN
09:03 3.3 °F /  -15.9 °C -1.8 °F /  -18.8 °C 1026.6 in /  34760.7 hPa NW 14.8 mph /  23.8 km/h 14.8 mph /  23.8 km/h 69 % 0.0 in /  0 mm 42.0 W/m2 BKN
09:08 3.9 °F /  -15.6 °C -1.3 °F /  -18.5 °C 1026.3 in /  34750.5 hPa NW 16.7 mph /  26.9 km/h 16.7 mph /  26.9 km/h 69 % 0.0 in /  0 mm 51.0 W/m2 SCT
09:13 4.4 °F /  -15.3 °C -0.9 °F /  -18.3 °C 1026.3 in /  34750.5 hPa NW 20.4 mph /  32.8 km/h 20.4 mph /  32.8 km/h 68 % 0.0 in /  0 mm 79.0 W/m2 FEW
09:18 5.6 °F /  -14.7 °C -0.1 °F /  -17.8 °C 1026.3 in /  34750.5 hPa NW 20.9 mph /  33.6 km/h 20.9 mph /  33.6 km/h 67 % 0.0 in /  0 mm 70.0 W/m2 FEW
09:23 6.7 °F /  -14.1 °C 0.9 °F /  -17.3 °C 1026.3 in /  34750.5 hPa NW 24.1 mph /  38.8 km/h 24.1 mph /  38.8 km/h 67 % 0.0 in /  0 mm 67.0 W/m2 FEW
09:28 7.2 °F /  -13.8 °C 1.3 °F /  -17.1 °C 1026.3 in /  34750.5 hPa NW 18.5 mph /  29.8 km/h 18.5 mph /  29.8 km/h 66 % 0.0 in /  0 mm 60.0 W/m2 FEW
09:33 7.8 °F /  -13.4 °C 1.6 °F /  -16.9 °C 1026.3 in /  34750.5 hPa NNW 18.5 mph /  29.8 km/h 18.5 mph /  29.8 km/h 65 % 0.0 in /  0 mm 90.0 W/m2 FEW
09:38 7.8 °F /  -13.4 °C 1.6 °F /  -16.9 °C 1026.0 in /  34740.4 hPa NW 18.5 mph /  29.8 km/h 18.5 mph /  29.8 km/h 65 % 0.0 in /  0 mm 98.0 W/m2 FEW
09:43 8.3 °F /  -13.2 °C 2.1 °F /  -16.6 °C 1026.0 in /  34740.4 hPa NW 16.7 mph /  26.9 km/h 16.7 mph /  26.9 km/h 65 % 0.0 in /  0 mm 141.0 W/m2 CLR
09:48 8.3 °F /  -13.2 °C 1.9 °F /  -16.7 °C 1026.0 in /  34740.4 hPa NW 18.5 mph /  29.8 km/h 18.5 mph /  29.8 km/h 64 % 0.0 in /  0 mm 167.0 W/m2 CLR
09:53 8.9 °F /  -12.8 °C 2.4 °F /  -16.4 °C 1026.0 in /  34740.4 hPa NNW 20.4 mph /  32.8 km/h 20.4 mph /  32.8 km/h 64 % 0.0 in /  0 mm 207.0 W/m2 CLR
09:58 9.4 °F /  -12.6 °C 2.9 °F /  -16.2 °C 1026.3 in /  34750.5 hPa NW 18.5 mph /  29.8 km/h 18.5 mph /  29.8 km/h 64 % 0.0 in /  0 mm 197.0 W/m2 CLR
10:03 9.4 °F /  -12.6 °C 2.7 °F /  -16.3 °C 1026.3 in /  34750.5 hPa NNW 29.6 mph /  47.6 km/h 29.6 mph /  47.6 km/h 63 % 0.0 in /  0 mm 283.0 W/m2 CLR
10:08 10.0 °F /  -12.2 °C 3.1 °F /  -16.1 °C 1026.3 in /  34750.5 hPa NNW 24.1 mph /  38.8 km/h 24.1 mph /  38.8 km/h 62 % 0.0 in /  0 mm 260.0 W/m2 CLR
10:13 10.0 °F /  -12.2 °C 2.8 °F /  -16.2 °C 1026.3 in /  34750.5 hPa NNW 24.1 mph /  38.8 km/h 24.1 mph /  38.8 km/h 61 % 0.0 in /  0 mm 253.0 W/m2 CLR
10:18 10.6 °F /  -11.9 °C 3.1 °F /  -16.1 °C 1026.0 in /  34740.4 hPa NW 27.8 mph /  44.7 km/h 27.8 mph /  44.7 km/h 60 % 0.0 in /  0 mm 239.0 W/m2 CLR
10:23 10.6 °F /  -11.9 °C 3.1 °F /  -16.1 °C 1026.0 in /  34740.4 hPa NW 24.1 mph /  38.8 km/h 24.1 mph /  38.8 km/h 60 % 0.0 in /  0 mm 315.0 W/m2 CLR
10:28 11.1 °F /  -11.6 °C 3.6 °F /  -15.8 °C 1026.0 in /  34740.4 hPa NNW 24.1 mph /  38.8 km/h 24.1 mph /  38.8 km/h 60 % 0.0 in /  0 mm 322.0 W/m2 CLR
10:33 11.1 °F /  -11.6 °C 3.4 °F /  -15.9 °C 1026.0 in /  34740.4 hPa NNW 31.5 mph /  50.7 km/h 31.5 mph /  50.7 km/h 59 % 0.0 in /  0 mm 339.0 W/m2 CLR
10:38 11.1 °F /  -11.6 °C 3.2 °F /  -16 °C 1026.0 in /  34740.4 hPa NNW 24.1 mph /  38.8 km/h 24.1 mph /  38.8 km/h 58 % 0.0 in /  0 mm 299.0 W/m2 CLR
10:43 11.7 °F /  -11.3 °C 3.4 °F /  -15.9 °C 1026.0 in /  34740.4 hPa NNW 24.1 mph /  38.8 km/h 24.1 mph /  38.8 km/h 57 % 0.0 in /  0 mm 288.0 W/m2 CLR
10:48 11.7 °F /  -11.3 °C 3.2 °F /  -16 °C 1026.0 in /  34740.4 hPa NW 27.8 mph /  44.7 km/h 27.8 mph /  44.7 km/h 56 % 0.0 in /  0 mm 295.0 W/m2 CLR
10:53 11.7 °F /  -11.3 °C 3.4 °F /  -15.9 °C 1026.3 in /  34750.5 hPa NNW 31.5 mph /  50.7 km/h 31.5 mph /  50.7 km/h 57 % 0.0 in /  0 mm 338.0 W/m2 CLR
10:58 12.2 °F /  -11 °C 4.2 °F /  -15.4 °C 1026.0 in /  34740.4 hPa NW 25.7 mph /  41.4 km/h 25.7 mph /  41.4 km/h 58 % 0.0 in /  0 mm 404.0 W/m2 CLR
11:03 12.2 °F /  -11 °C 3.7 °F /  -15.7 °C 1026.0 in /  34740.4 hPa NW 24.1 mph /  38.8 km/h 24.1 mph /  38.8 km/h 56 % 0.0 in /  0 mm 334.0 W/m2 CLR
11:08 12.2 °F /  -11 °C 3.7 °F /  -15.7 °C 1026.0 in /  34740.4 hPa NNW 24.1 mph /  38.8 km/h 24.1 mph /  38.8 km/h 56 % 0.0 in /  0 mm 345.0 W/m2 CLR
11:13 12.8 °F /  -10.7 °C 4.2 °F /  -15.4 °C 1026.0 in /  34740.4 hPa NW 27.8 mph /  44.7 km/h 27.8 mph /  44.7 km/h 56 % 0.0 in /  0 mm 387.0 W/m2 CLR
11:18 12.2 °F /  -11 °C 3.4 °F /  -15.9 °C 1025.6 in /  34726.8 hPa NNW 29.6 mph /  47.6 km/h 29.6 mph /  47.6 km/h 55 % 0.0 in /  0 mm 297.0 W/m2 CLR
11:23 12.2 °F /  -11 °C 3.4 °F /  -15.9 °C 1025.6 in /  34726.8 hPa NW 22.5 mph /  36.2 km/h 22.5 mph /  36.2 km/h 55 % 0.0 in /  0 mm 390.0 W/m2 CLR
11:28 12.8 °F /  -10.7 °C 4.2 °F /  -15.4 °C 1025.6 in /  34726.8 hPa NNW 24.1 mph /  38.8 km/h 24.1 mph /  38.8 km/h 56 % 0.0 in /  0 mm 383.0 W/m2 CLR
11:33 12.8 °F /  -10.7 °C 3.7 °F /  -15.7 °C 1025.6 in /  34726.8 hPa NW 29.6 mph /  47.6 km/h 29.6 mph /  47.6 km/h 54 % 0.0 in /  0 mm 446.0 W/m2 CLR
11:38 13.3 °F /  -10.4 °C 4.2 °F /  -15.4 °C 1025.6 in /  34726.8 hPa NNW 25.9 mph /  41.7 km/h 25.9 mph /  41.7 km/h 54 % 0.0 in /  0 mm 403.0 W/m2 CLR
11:43 13.3 °F /  -10.4 °C 4.5 °F /  -15.3 °C 1025.6 in /  34726.8 hPa NNW 14.8 mph /  23.8 km/h 14.8 mph /  23.8 km/h 55 % 0.0 in /  0 mm 376.0 W/m2 CLR
11:48 13.3 °F /  -10.4 °C 4.2 °F /  -15.4 °C 1025.6 in /  34726.8 hPa North 18.5 mph /  29.8 km/h 18.5 mph /  29.8 km/h 54 % 0.0 in /  0 mm 297.0 W/m2 CLR
11:54 12.8 °F /  -10.7 °C 3.7 °F /  -15.7 °C 1025.6 in /  34726.8 hPa North 25.9 mph /  41.7 km/h 25.9 mph /  41.7 km/h 54 % 0.0 in /  0 mm 362.0 W/m2 CLR
11:59 13.3 °F /  -10.4 °C 4.2 °F /  -15.4 °C 1025.6 in /  34726.8 hPa NNW 18.5 mph /  29.8 km/h 18.5 mph /  29.8 km/h 54 % 0.0 in /  0 mm 364.0 W/m2 CLR
12:04 13.3 °F /  -10.4 °C 4.5 °F /  -15.3 °C 1025.6 in /  34726.8 hPa North 20.4 mph /  32.8 km/h 20.4 mph /  32.8 km/h 55 % 0.0 in /  0 mm 388.0 W/m2 CLR
12:09 13.3 °F /  -10.4 °C 4.5 °F /  -15.3 °C 1025.3 in /  34716.7 hPa NNW 22.2 mph /  35.7 km/h 22.2 mph /  35.7 km/h 55 % 0.0 in /  0 mm 408.0 W/m2 CLR
12:14 13.3 °F /  -10.4 °C 4.5 °F /  -15.3 °C 1025.3 in /  34716.7 hPa NNW 18.5 mph /  29.8 km/h 18.5 mph /  29.8 km/h 55 % 0.0 in /  0 mm 436.0 W/m2 CLR
12:19 12.8 °F /  -10.7 °C 3.9 °F /  -15.6 °C 1025.3 in /  34716.7 hPa North 18.5 mph /  29.8 km/h 18.5 mph /  29.8 km/h 55 % 0.0 in /  0 mm 473.0 W/m2 CLR
12:24 13.3 °F /  -10.4 °C 4.5 °F /  -15.3 °C 1025.3 in /  34716.7 hPa NNE 16.7 mph /  26.9 km/h 16.7 mph /  26.9 km/h 55 % 0.0 in /  0 mm 471.0 W/m2 CLR
12:29 13.3 °F /  -10.4 °C 4.5 °F /  -15.3 °C 1024.9 in /  34703.1 hPa NNE 16.7 mph /  26.9 km/h 16.7 mph /  26.9 km/h 55 % 0.0 in /  0 mm 396.0 W/m2 CLR
12:34 13.9 °F /  -10.1 °C 5.0 °F /  -15 °C 1024.9 in /  34703.1 hPa NNE 19.3 mph /  31.1 km/h 19.3 mph /  31.1 km/h 55 % 0.0 in /  0 mm 401.0 W/m2 CLR
12:39 13.9 °F /  -10.1 °C 4.7 °F /  -15.2 °C 1024.9 in /  34703.1 hPa North 19.3 mph /  31.1 km/h 19.3 mph /  31.1 km/h 54 % 0.0 in /  0 mm 443.0 W/m2 CLR
12:44 13.9 °F /  -10.1 °C 4.4 °F /  -15.3 °C 1024.6 in /  34693 hPa North 25.9 mph /  41.7 km/h 25.9 mph /  41.7 km/h 53 % 0.0 in /  0 mm 429.0 W/m2 CLR
12:49 13.9 °F /  -10.1 °C 4.2 °F /  -15.4 °C 1024.6 in /  34693 hPa North 27.8 mph /  44.7 km/h 27.8 mph /  44.7 km/h 52 % 0.0 in /  0 mm 459.0 W/m2 CLR
12:54 13.9 °F /  -10.1 °C 4.2 °F /  -15.4 °C 1024.6 in /  34693 hPa North 27.8 mph /  44.7 km/h 27.8 mph /  44.7 km/h 52 % 0.0 in /  0 mm 381.0 W/m2 CLR
12:59 14.4 °F /  -9.8 °C 4.4 °F /  -15.3 °C 1024.6 in /  34693 hPa NNE 25.9 mph /  41.7 km/h 25.9 mph /  41.7 km/h 51 % 0.0 in /  0 mm 452.0 W/m2 CLR
13:04 14.4 °F /  -9.8 °C 4.2 °F /  -15.4 °C 1024.3 in /  34682.8 hPa North 20.4 mph /  32.8 km/h 20.4 mph /  32.8 km/h 50 % 0.0 in /  0 mm 378.0 W/m2 CLR
13:09 14.4 °F /  -9.8 °C 4.2 °F /  -15.4 °C 1024.3 in /  34682.8 hPa NNE 20.9 mph /  33.6 km/h 20.9 mph /  33.6 km/h 50 % 0.0 in /  0 mm 418.0 W/m2 CLR
13:14 15.0 °F /  -9.4 °C 4.1 °F /  -15.5 °C 1024.3 in /  34682.8 hPa NNE 20.4 mph /  32.8 km/h 20.4 mph /  32.8 km/h 48 % 0.0 in /  0 mm 469.0 W/m2 CLR
13:19 15.0 °F /  -9.4 °C 4.1 °F /  -15.5 °C 1024.3 in /  34682.8 hPa North 24.1 mph /  38.8 km/h 24.1 mph /  38.8 km/h 48 % 0.0 in /  0 mm 462.0 W/m2 CLR
13:24 15.0 °F /  -9.4 °C 4.1 °F /  -15.5 °C 1023.9 in /  34669.3 hPa NNW 27.8 mph /  44.7 km/h 27.8 mph /  44.7 km/h 48 % 0.0 in /  0 mm 468.0 W/m2 CLR
13:29 15.0 °F /  -9.4 °C 3.8 °F /  -15.7 °C 1024.3 in /  34682.8 hPa North 31.5 mph /  50.7 km/h 31.5 mph /  50.7 km/h 47 % 0.0 in /  0 mm 475.0 W/m2 CLR
13:34 15.6 °F /  -9.1 °C 4.6 °F /  -15.2 °C 1023.9 in /  34669.3 hPa NNW 22.5 mph /  36.2 km/h 22.5 mph /  36.2 km/h 48 % 0.0 in /  0 mm 471.0 W/m2 CLR
13:39 15.6 °F /  -9.1 °C 4.3 °F /  -15.4 °C 1023.9 in /  34669.3 hPa NNW 31.5 mph /  50.7 km/h 31.5 mph /  50.7 km/h 47 % 0.0 in /  0 mm 478.0 W/m2 CLR
13:44 15.6 °F /  -9.1 °C 4.3 °F /  -15.4 °C 1023.6 in /  34659.1 hPa North 25.9 mph /  41.7 km/h 25.9 mph /  41.7 km/h 47 % 0.0 in /  0 mm 471.0 W/m2 CLR
13:49 16.1 °F /  -8.8 °C 4.5 °F /  -15.3 °C 1023.6 in /  34659.1 hPa North 29.6 mph /  47.6 km/h 29.6 mph /  47.6 km/h 46 % 0.0 in /  0 mm 468.0 W/m2 CLR
13:54 15.6 °F /  -9.1 °C 3.9 °F /  -15.6 °C 1023.6 in /  34659.1 hPa NNE 24.1 mph /  38.8 km/h 24.1 mph /  38.8 km/h 46 % 0.0 in /  0 mm 466.0 W/m2 CLR
13:59 16.1 °F /  -8.8 °C 4.5 °F /  -15.3 °C 1023.2 in /  34645.6 hPa NNW 20.4 mph /  32.8 km/h 20.4 mph /  32.8 km/h 46 % 0.0 in /  0 mm 461.0 W/m2 CLR
14:04 16.1 °F /  -8.8 °C 4.2 °F /  -15.4 °C 1022.9 in /  34635.4 hPa North 22.2 mph /  35.7 km/h 22.2 mph /  35.7 km/h 45 % 0.0 in /  0 mm 457.0 W/m2 CLR
14:09 16.1 °F /  -8.8 °C 4.2 °F /  -15.4 °C 1022.9 in /  34635.4 hPa NNW 20.4 mph /  32.8 km/h 20.4 mph /  32.8 km/h 45 % 0.0 in /  0 mm 455.0 W/m2 CLR
14:14 16.7 °F /  -8.5 °C 4.3 °F /  -15.4 °C 1022.9 in /  34635.4 hPa NNW 31.5 mph /  50.7 km/h 31.5 mph /  50.7 km/h 44 % 0.0 in /  0 mm 450.0 W/m2 CLR
14:19 16.7 °F /  -8.5 °C 4.0 °F /  -15.6 °C 1022.9 in /  34635.4 hPa NW 31.5 mph /  50.7 km/h 31.5 mph /  50.7 km/h 43 % 0.0 in /  0 mm 445.0 W/m2 CLR
14:24 16.7 °F /  -8.5 °C 3.7 °F /  -15.7 °C 1022.9 in /  34635.4 hPa NW 40.7 mph /  65.5 km/h 40.7 mph /  65.5 km/h 42 % 0.0 in /  0 mm 443.0 W/m2 CLR
14:29 17.2 °F /  -8.2 °C 4.2 °F /  -15.4 °C 1022.9 in /  34635.4 hPa NNW 44.4 mph /  71.5 km/h 44.4 mph /  71.5 km/h 42 % 0.0 in /  0 mm 439.0 W/m2 CLR
14:34 16.7 °F /  -8.5 °C 3.3 °F /  -15.9 °C 1022.6 in /  34625.2 hPa NNE 37.0 mph /  59.5 km/h 37.0 mph /  59.5 km/h 41 % 0.0 in /  0 mm 432.0 W/m2 CLR
14:39 16.7 °F /  -8.5 °C 4.0 °F /  -15.6 °C 1022.6 in /  34625.2 hPa NNW 33.3 mph /  53.6 km/h 33.3 mph /  53.6 km/h 43 % 0.0 in /  0 mm 425.0 W/m2 CLR
14:44 16.7 °F /  -8.5 °C 3.3 °F /  -15.9 °C 1022.6 in /  34625.2 hPa North 33.3 mph /  53.6 km/h 33.3 mph /  53.6 km/h 41 % 0.0 in /  0 mm 420.0 W/m2 CLR
14:49 16.7 °F /  -8.5 °C 3.7 °F /  -15.7 °C 1022.6 in /  34625.2 hPa North 38.9 mph /  62.6 km/h 38.9 mph /  62.6 km/h 42 % 0.0 in /  0 mm 413.0 W/m2 CLR
14:54 16.7 °F /  -8.5 °C 3.7 °F /  -15.7 °C 1022.6 in /  34625.2 hPa North 24.1 mph /  38.8 km/h 24.1 mph /  38.8 km/h 42 % 0.0 in /  0 mm 403.0 W/m2 CLR
14:59 16.7 °F /  -8.5 °C 3.3 °F /  -15.9 °C 1022.2 in /  34611.7 hPa North 25.9 mph /  41.7 km/h 25.9 mph /  41.7 km/h 41 % 0.0 in /  0 mm 390.0 W/m2 CLR
15:04 17.2 °F /  -8.2 °C 3.1 °F /  -16.1 °C 1022.6 in /  34625.2 hPa North 37.0 mph /  59.5 km/h 37.0 mph /  59.5 km/h 39 % 0.0 in /  0 mm 385.0 W/m2 CLR
15:09 17.2 °F /  -8.2 °C 2.8 °F /  -16.2 °C 1022.2 in /  34611.7 hPa North 37.0 mph /  59.5 km/h 37.0 mph /  59.5 km/h 38 % 0.0 in /  0 mm 378.0 W/m2 CLR
15:14 17.2 °F /  -8.2 °C 2.4 °F /  -16.4 °C 1022.6 in /  34625.2 hPa NNE 35.2 mph /  56.6 km/h 35.2 mph /  56.6 km/h 37 % 0.0 in /  0 mm 369.0 W/m2 CLR
15:19 17.2 °F /  -8.2 °C 2.4 °F /  -16.4 °C 1022.6 in /  34625.2 hPa NW 50.0 mph /  80.5 km/h 50.0 mph /  80.5 km/h 37 % 0.0 in /  0 mm 359.0 W/m2 CLR
15:24 17.2 °F /  -8.2 °C 2.0 °F /  -16.7 °C 1022.2 in /  34611.7 hPa NNW 44.4 mph /  71.5 km/h 44.4 mph /  71.5 km/h 36 % 0.0 in /  0 mm 348.0 W/m2 CLR
15:29 17.2 °F /  -8.2 °C 2.0 °F /  -16.7 °C 1022.2 in /  34611.7 hPa NNW 48.1 mph /  77.4 km/h 48.1 mph /  77.4 km/h 36 % 0.0 in /  0 mm 339.0 W/m2 CLR
15:34 17.2 °F /  -8.2 °C 1.6 °F /  -16.9 °C 1022.2 in /  34611.7 hPa North 42.6 mph /  68.6 km/h 42.6 mph /  68.6 km/h 35 % 0.0 in /  0 mm 330.0 W/m2 CLR
15:39 17.2 °F /  -8.2 °C 1.6 °F /  -16.9 °C 1022.2 in /  34611.7 hPa NNW 37.0 mph /  59.5 km/h 37.0 mph /  59.5 km/h 35 % 0.0 in /  0 mm 323.0 W/m2 CLR
15:44 17.2 °F /  -8.2 °C 1.6 °F /  -16.9 °C 1022.2 in /  34611.7 hPa NNW 35.2 mph /  56.6 km/h 35.2 mph /  56.6 km/h 35 % 0.0 in /  0 mm 308.0 W/m2 CLR
15:49 17.2 °F /  -8.2 °C 1.6 °F /  -16.9 °C 1022.2 in /  34611.7 hPa NW 37.0 mph /  59.5 km/h 37.0 mph /  59.5 km/h 35 % 0.0 in /  0 mm 306.0 W/m2 CLR
15:54 17.2 °F /  -8.2 °C 2.4 °F /  -16.4 °C 1022.2 in /  34611.7 hPa NNE 24.1 mph /  38.8 km/h 24.1 mph /  38.8 km/h 37 % 0.0 in /  0 mm 271.0 W/m2 CLR
15:59 17.2 °F /  -8.2 °C 2.4 °F /  -16.4 °C 1022.2 in /  34611.7 hPa North 31.5 mph /  50.7 km/h 31.5 mph /  50.7 km/h 37 % 0.0 in /  0 mm 380.0 W/m2 CLR
16:04 17.2 °F /  -8.2 °C 2.0 °F /  -16.7 °C 1022.6 in /  34625.2 hPa NNW 27.8 mph /  44.7 km/h 27.8 mph /  44.7 km/h 36 % 0.0 in /  0 mm 311.0 W/m2 CLR
16:09 17.2 °F /  -8.2 °C 2.8 °F /  -16.2 °C 1022.6 in /  34625.2 hPa North 32.2 mph /  51.8 km/h 32.2 mph /  51.8 km/h 38 % 0.0 in /  0 mm 130.0 W/m2 CLR
16:14 16.7 °F /  -8.5 °C 2.6 °F /  -16.3 °C 1022.6 in /  34625.2 hPa NNW 31.5 mph /  50.7 km/h 31.5 mph /  50.7 km/h 39 % 0.0 in /  0 mm 121.0 W/m2 CLR
16:19 16.1 °F /  -8.8 °C 2.5 °F /  -16.4 °C 1022.6 in /  34625.2 hPa NNW 37.0 mph /  59.5 km/h 37.0 mph /  59.5 km/h 40 % 0.0 in /  0 mm 70.0 W/m2 CLR
16:24 15.6 °F /  -9.1 °C 2.7 °F /  -16.3 °C 1022.6 in /  34625.2 hPa NNW 25.9 mph /  41.7 km/h 25.9 mph /  41.7 km/h 42 % 0.0 in /  0 mm 162.0 W/m2 FEW
16:29 15.6 °F /  -9.1 °C 2.3 °F /  -16.5 °C 1022.6 in /  34625.2 hPa NNW 37.0 mph /  59.5 km/h 37.0 mph /  59.5 km/h 41 % 0.0 in /  0 mm 47.0 W/m2 FEW
16:34 15.6 °F /  -9.1 °C 3.0 °F /  -16.1 °C 1022.6 in /  34625.2 hPa NNW 31.5 mph /  50.7 km/h 31.5 mph /  50.7 km/h 43 % 0.0 in /  0 mm 135.0 W/m2 FEW
16:39 15.0 °F /  -9.4 °C 2.5 °F /  -16.4 °C 1022.2 in /  34611.7 hPa NNW 31.5 mph /  50.7 km/h 31.5 mph /  50.7 km/h 43 % 0.0 in /  0 mm 162.0 W/m2 FEW
16:44 15.0 °F /  -9.4 °C 2.2 °F /  -16.6 °C 1022.2 in /  34611.7 hPa NNW 32.2 mph /  51.8 km/h 32.2 mph /  51.8 km/h 42 % 0.0 in /  0 mm 144.0 W/m2 CLR
16:49 15.6 °F /  -9.1 °C 2.7 °F /  -16.3 °C 1022.2 in /  34611.7 hPa NNW 31.5 mph /  50.7 km/h 31.5 mph /  50.7 km/h 42 % 0.0 in /  0 mm 132.0 W/m2 CLR
16:54 15.6 °F /  -9.1 °C 3.0 °F /  -16.1 °C 1022.2 in /  34611.7 hPa North 27.4 mph /  44.1 km/h 27.4 mph /  44.1 km/h 43 % 0.0 in /  0 mm 120.0 W/m2 CLR
16:59 15.0 °F /  -9.4 °C 2.2 °F /  -16.6 °C 1022.2 in /  34611.7 hPa NNW 35.2 mph /  56.6 km/h 35.2 mph /  56.6 km/h 42 % 0.0 in /  0 mm 51.0 W/m2 CLR
17:04 15.0 °F /  -9.4 °C 2.5 °F /  -16.4 °C 1022.6 in /  34625.2 hPa NNW 31.5 mph /  50.7 km/h 31.5 mph /  50.7 km/h 43 % 0.0 in /  0 mm 93.0 W/m2 FEW
17:10 15.0 °F /  -9.4 °C 2.5 °F /  -16.4 °C 1022.6 in /  34625.2 hPa NNW 25.9 mph /  41.7 km/h 25.9 mph /  41.7 km/h 43 % 0.0 in /  0 mm 54.0 W/m2 CLR
17:15 15.0 °F /  -9.4 °C 2.5 °F /  -16.4 °C 1022.6 in /  34625.2 hPa NNW 31.5 mph /  50.7 km/h 31.5 mph /  50.7 km/h 43 % 0.0 in /  0 mm 49.0 W/m2 BKN
17:20 14.4 °F /  -9.8 °C 2.3 °F /  -16.5 °C 1022.6 in /  34625.2 hPa North 37.0 mph /  59.5 km/h 37.0 mph /  59.5 km/h 44 % 0.0 in /  0 mm 69.0 W/m2 SCT
17:25 14.4 °F /  -9.8 °C 2.7 °F /  -16.3 °C 1022.6 in /  34625.2 hPa North 33.3 mph /  53.6 km/h 33.3 mph /  53.6 km/h 45 % 0.0 in /  0 mm 46.0 W/m2 SCT
17:30 14.4 °F /  -9.8 °C 2.7 °F /  -16.3 °C 1022.6 in /  34625.2 hPa NNW 31.5 mph /  50.7 km/h 31.5 mph /  50.7 km/h 45 % 0.0 in /  0 mm 35.0 W/m2 BKN
17:35 13.9 °F /  -10.1 °C 2.4 °F /  -16.4 °C 1022.9 in /  34635.4 hPa NNW 33.3 mph /  53.6 km/h 33.3 mph /  53.6 km/h 46 % 0.0 in /  0 mm 26.0 W/m2 BKN
17:40 13.9 °F /  -10.1 °C 2.4 °F /  -16.4 °C 1022.9 in /  34635.4 hPa NNW 31.5 mph /  50.7 km/h 31.5 mph /  50.7 km/h 46 % 0.0 in /  0 mm 23.0 W/m2 BKN
17:45 13.9 °F /  -10.1 °C 2.8 °F /  -16.2 °C 1022.9 in /  34635.4 hPa North 35.4 mph /  57 km/h 35.4 mph /  57 km/h 47 % 0.0 in /  0 mm 19.0 W/m2 BKN
17:50 13.9 °F /  -10.1 °C 2.8 °F /  -16.2 °C 1022.9 in /  34635.4 hPa NNW 29.6 mph /  47.6 km/h 29.6 mph /  47.6 km/h 47 % 0.0 in /  0 mm 12.0 W/m2 BKN
17:55 13.9 °F /  -10.1 °C 2.8 °F /  -16.2 °C 1022.9 in /  34635.4 hPa North 33.3 mph /  53.6 km/h 33.3 mph /  53.6 km/h 47 % 0.0 in /  0 mm 9.0 W/m2 BKN
18:00 13.9 °F /  -10.1 °C 3.1 °F /  -16.1 °C 1023.2 in /  34645.6 hPa NNW 31.5 mph /  50.7 km/h 31.5 mph /  50.7 km/h 48 % 0.0 in /  0 mm 5.0 W/m2 OVC
18:05 13.3 °F /  -10.4 °C 2.6 °F /  -16.3 °C 1023.2 in /  34645.6 hPa North 33.8 mph /  54.4 km/h 33.8 mph /  54.4 km/h 48 % 0.0 in /  0 mm 0.0 W/m2 OVC
18:10 13.3 °F /  -10.4 °C 2.8 °F /  -16.2 °C 1023.2 in /  34645.6 hPa NNW 31.5 mph /  50.7 km/h 31.5 mph /  50.7 km/h 49 % 0.0 in /  0 mm 0.0 W/m2 OVC
18:15 13.3 °F /  -10.4 °C 2.8 °F /  -16.2 °C 1023.2 in /  34645.6 hPa NNW 22.5 mph /  36.2 km/h 22.5 mph /  36.2 km/h 49 % 0.0 in /  0 mm 0.0 W/m2 CLR
18:20 13.3 °F /  -10.4 °C 3.1 °F /  -16.1 °C 1023.2 in /  34645.6 hPa NNW 22.2 mph /  35.7 km/h 22.2 mph /  35.7 km/h 50 % 0.0 in /  0 mm 0.0 W/m2 CLR
18:25 13.3 °F /  -10.4 °C 3.1 °F /  -16.1 °C 1023.2 in /  34645.6 hPa NW 24.1 mph /  38.8 km/h 24.1 mph /  38.8 km/h 50 % 0.0 in /  0 mm 0.0 W/m2 CLR
18:30 13.3 °F /  -10.4 °C 3.1 °F /  -16.1 °C 1023.2 in /  34645.6 hPa NW 22.2 mph /  35.7 km/h 22.2 mph /  35.7 km/h 50 % 0.0 in /  0 mm 0.0 W/m2 CLR
18:35 13.3 °F /  -10.4 °C 3.1 °F /  -16.1 °C 1023.2 in /  34645.6 hPa NW 25.9 mph /  41.7 km/h 25.9 mph /  41.7 km/h 50 % 0.0 in /  0 mm 0.0 W/m2 CLR
18:40 13.3 °F /  -10.4 °C 3.1 °F /  -16.1 °C 1023.2 in /  34645.6 hPa NW 22.2 mph /  35.7 km/h 22.2 mph /  35.7 km/h 50 % 0.0 in /  0 mm 0.0 W/m2 CLR
18:45 13.9 °F /  -10.1 °C 3.6 °F /  -15.8 °C 1023.2 in /  34645.6 hPa NNW 33.8 mph /  54.4 km/h 33.8 mph /  54.4 km/h 50 % 0.0 in /  0 mm 0.0 W/m2 CLR
18:50 13.9 °F /  -10.1 °C 3.3 °F /  -15.9 °C 1023.2 in /  34645.6 hPa NNW 24.1 mph /  38.8 km/h 24.1 mph /  38.8 km/h 49 % 0.0 in /  0 mm 0.0 W/m2 CLR
18:55 13.9 °F /  -10.1 °C 3.3 °F /  -15.9 °C 1023.2 in /  34645.6 hPa NW 27.8 mph /  44.7 km/h 27.8 mph /  44.7 km/h 49 % 0.0 in /  0 mm 0.0 W/m2 CLR
19:00 13.9 °F /  -10.1 °C 3.3 °F /  -15.9 °C 1023.2 in /  34645.6 hPa NNW 31.5 mph /  50.7 km/h 31.5 mph /  50.7 km/h 49 % 0.0 in /  0 mm 0.0 W/m2 CLR
19:05 13.9 °F /  -10.1 °C 3.6 °F /  -15.8 °C 1023.2 in /  34645.6 hPa NW 20.4 mph /  32.8 km/h 20.4 mph /  32.8 km/h 50 % 0.0 in /  0 mm 0.0 W/m2 CLR
19:10 13.3 °F /  -10.4 °C 3.1 °F /  -16.1 °C 1023.2 in /  34645.6 hPa NW 29.6 mph /  47.6 km/h 29.6 mph /  47.6 km/h 50 % 0.0 in /  0 mm 0.0 W/m2 CLR
19:15 13.3 °F /  -10.4 °C 3.4 °F /  -15.9 °C 1023.6 in /  34659.1 hPa NW 22.2 mph /  35.7 km/h 22.2 mph /  35.7 km/h 51 % 0.0 in /  0 mm 0.0 W/m2 CLR
19:20 13.3 °F /  -10.4 °C 3.4 °F /  -15.9 °C 1023.6 in /  34659.1 hPa NW 33.3 mph /  53.6 km/h 33.3 mph /  53.6 km/h 51 % 0.0 in /  0 mm 0.0 W/m2 CLR
19:25 13.3 °F /  -10.4 °C 3.4 °F /  -15.9 °C 1023.6 in /  34659.1 hPa NNW 20.4 mph /  32.8 km/h 20.4 mph /  32.8 km/h 51 % 0.0 in /  0 mm 0.0 W/m2 CLR
19:30 13.3 °F /  -10.4 °C 3.7 °F /  -15.7 °C 1023.2 in /  34645.6 hPa NNW 24.1 mph /  38.8 km/h 24.1 mph /  38.8 km/h 52 % 0.0 in /  0 mm 0.0 W/m2 CLR
19:35 13.3 °F /  -10.4 °C 3.7 °F /  -15.7 °C 1023.2 in /  34645.6 hPa NW 25.9 mph /  41.7 km/h 25.9 mph /  41.7 km/h 52 % 0.0 in /  0 mm 0.0 W/m2 CLR
19:40 13.3 °F /  -10.4 °C 3.7 °F /  -15.7 °C 1023.2 in /  34645.6 hPa NW 25.9 mph /  41.7 km/h 25.9 mph /  41.7 km/h 52 % 0.0 in /  0 mm 0.0 W/m2 CLR
19:45 13.3 °F /  -10.4 °C 3.9 °F /  -15.6 °C 1023.2 in /  34645.6 hPa NNW 31.5 mph /  50.7 km/h 31.5 mph /  50.7 km/h 53 % 0.0 in /  0 mm 0.0 W/m2 CLR
19:50 13.3 °F /  -10.4 °C 3.9 °F /  -15.6 °C 1023.2 in /  34645.6 hPa NW 32.2 mph /  51.8 km/h 32.2 mph /  51.8 km/h 53 % 0.0 in /  0 mm 0.0 W/m2 CLR
19:55 13.3 °F /  -10.4 °C 3.9 °F /  -15.6 °C 1023.2 in /  34645.6 hPa NW 31.5 mph /  50.7 km/h 31.5 mph /  50.7 km/h 53 % 0.0 in /  0 mm 0.0 W/m2 CLR
20:00 13.3 °F /  -10.4 °C 3.9 °F /  -15.6 °C 1023.6 in /  34659.1 hPa NW 32.2 mph /  51.8 km/h 32.2 mph /  51.8 km/h 53 % 0.0 in /  0 mm 0.0 W/m2 CLR
20:05 13.3 °F /  -10.4 °C 3.9 °F /  -15.6 °C 1023.6 in /  34659.1 hPa NW 27.8 mph /  44.7 km/h 27.8 mph /  44.7 km/h 53 % 0.0 in /  0 mm 0.0 W/m2 CLR
20:06 13.3 °F /  -10.4 °C 3.9 °F /  -15.6 °C 1023.6 in /  34659.1 hPa NNW 25.9 mph /  41.7 km/h 25.9 mph /  41.7 km/h 53 % 0.0 in /  0 mm 0.0 W/m2 CLR
20:11 13.3 °F /  -10.4 °C 4.2 °F /  -15.4 °C 1023.6 in /  34659.1 hPa NNW 35.2 mph /  56.6 km/h 35.2 mph /  56.6 km/h 54 % 0.0 in /  0 mm 0.0 W/m2 CLR
20:16 12.8 °F /  -10.7 °C 3.7 °F /  -15.7 °C 1023.6 in /  34659.1 hPa NW 25.9 mph /  41.7 km/h 25.9 mph /  41.7 km/h 54 % 0.0 in /  0 mm 0.0 W/m2 CLR
20:21 12.8 °F /  -10.7 °C 3.7 °F /  -15.7 °C 1023.6 in /  34659.1 hPa NNW 22.2 mph /  35.7 km/h 22.2 mph /  35.7 km/h 54 % 0.0 in /  0 mm 0.0 W/m2 CLR
20:26 12.8 °F /  -10.7 °C 3.7 °F /  -15.7 °C 1023.6 in /  34659.1 hPa NNW 33.3 mph /  53.6 km/h 33.3 mph /  53.6 km/h 54 % 0.0 in /  0 mm 0.0 W/m2 CLR
20:31 12.8 °F /  -10.7 °C 3.4 °F /  -15.9 °C 1023.6 in /  34659.1 hPa NW 42.6 mph /  68.6 km/h 42.6 mph /  68.6 km/h 53 % 0.0 in /  0 mm 0.0 W/m2 CLR
20:36 13.3 °F /  -10.4 °C 3.9 °F /  -15.6 °C 1023.6 in /  34659.1 hPa NW 24.1 mph /  38.8 km/h 24.1 mph /  38.8 km/h 53 % 0.0 in /  0 mm 0.0 W/m2 CLR
20:41 13.3 °F /  -10.4 °C 3.9 °F /  -15.6 °C 1023.6 in /  34659.1 hPa NW 31.5 mph /  50.7 km/h 31.5 mph /  50.7 km/h 53 % 0.0 in /  0 mm 0.0 W/m2 CLR
20:46 12.8 °F /  -10.7 °C 3.4 °F /  -15.9 °C 1023.6 in /  34659.1 hPa NW 25.9 mph /  41.7 km/h 25.9 mph /  41.7 km/h 53 % 0.0 in /  0 mm 0.0 W/m2 CLR
20:51 12.8 °F /  -10.7 °C 3.4 °F /  -15.9 °C 1023.6 in /  34659.1 hPa North 37.0 mph /  59.5 km/h 37.0 mph /  59.5 km/h 53 % 0.0 in /  0 mm 0.0 W/m2 CLR
20:56 13.3 °F /  -10.4 °C 3.9 °F /  -15.6 °C 1023.6 in /  34659.1 hPa NW 24.1 mph /  38.8 km/h 24.1 mph /  38.8 km/h 53 % 0.0 in /  0 mm 0.0 W/m2 CLR
21:01 13.3 °F /  -10.4 °C 3.9 °F /  -15.6 °C 1023.6 in /  34659.1 hPa NNW 33.3 mph /  53.6 km/h 33.3 mph /  53.6 km/h 53 % 0.0 in /  0 mm 0.0 W/m2 CLR
21:06 13.3 °F /  -10.4 °C 3.7 °F /  -15.7 °C 1023.6 in /  34659.1 hPa NNW 31.5 mph /  50.7 km/h 31.5 mph /  50.7 km/h 52 % 0.0 in /  0 mm 0.0 W/m2 CLR
21:11 13.3 °F /  -10.4 °C 3.7 °F /  -15.7 °C 1023.6 in /  34659.1 hPa NW 31.5 mph /  50.7 km/h 31.5 mph /  50.7 km/h 52 % 0.0 in /  0 mm 0.0 W/m2 CLR
21:16 13.3 °F /  -10.4 °C 3.7 °F /  -15.7 °C 1023.6 in /  34659.1 hPa North 29.6 mph /  47.6 km/h 29.6 mph /  47.6 km/h 52 % 0.0 in /  0 mm 0.0 W/m2 CLR
21:21 13.3 °F /  -10.4 °C 3.9 °F /  -15.6 °C 1023.6 in /  34659.1 hPa NW 37.0 mph /  59.5 km/h 37.0 mph /  59.5 km/h 53 % 0.0 in /  0 mm 0.0 W/m2 CLR
21:26 13.3 °F /  -10.4 °C 3.9 °F /  -15.6 °C 1023.9 in /  34669.3 hPa NW 18.5 mph /  29.8 km/h 18.5 mph /  29.8 km/h 53 % 0.0 in /  0 mm 0.0 W/m2 CLR
21:31 13.3 °F /  -10.4 °C 3.9 °F /  -15.6 °C 1023.9 in /  34669.3 hPa NNW 33.3 mph /  53.6 km/h 33.3 mph /  53.6 km/h 53 % 0.0 in /  0 mm 0.0 W/m2 CLR
21:36 13.3 °F /  -10.4 °C 3.9 °F /  -15.6 °C 1023.9 in /  34669.3 hPa WNW 31.5 mph /  50.7 km/h 31.5 mph /  50.7 km/h 53 % 0.0 in /  0 mm 0.0 W/m2 CLR
21:41 13.3 °F /  -10.4 °C 3.9 °F /  -15.6 °C 1023.9 in /  34669.3 hPa WNW 35.2 mph /  56.6 km/h 35.2 mph /  56.6 km/h 53 % 0.0 in /  0 mm 0.0 W/m2 CLR
21:46 13.3 °F /  -10.4 °C 3.9 °F /  -15.6 °C 1023.9 in /  34669.3 hPa NNW 27.8 mph /  44.7 km/h 27.8 mph /  44.7 km/h 53 % 0.0 in /  0 mm 0.0 W/m2 CLR
21:51 13.3 °F /  -10.4 °C 4.2 °F /  -15.4 °C 1023.9 in /  34669.3 hPa NW 33.8 mph /  54.4 km/h 33.8 mph /  54.4 km/h 54 % 0.0 in /  0 mm 0.0 W/m2 CLR
21:56 13.3 °F /  -10.4 °C 4.2 °F /  -15.4 °C 1024.3 in /  34682.8 hPa NW 33.3 mph /  53.6 km/h 33.3 mph /  53.6 km/h 54 % 0.0 in /  0 mm 0.0 W/m2 CLR
22:01 13.3 °F /  -10.4 °C 4.2 °F /  -15.4 °C 1024.3 in /  34682.8 hPa NNW 31.5 mph /  50.7 km/h 31.5 mph /  50.7 km/h 54 % 0.0 in /  0 mm 0.0 W/m2 CLR
22:06 13.3 °F /  -10.4 °C 4.2 °F /  -15.4 °C 1024.3 in /  34682.8 hPa NNW 42.6 mph /  68.6 km/h 42.6 mph /  68.6 km/h 54 % 0.0 in /  0 mm 0.0 W/m2 CLR
22:11 13.3 °F /  -10.4 °C 4.5 °F /  -15.3 °C 1024.6 in /  34693 hPa NW 48.3 mph /  77.7 km/h 48.3 mph /  77.7 km/h 55 % 0.0 in /  0 mm 0.0 W/m2 CLR
22:16 13.9 °F /  -10.1 °C 4.7 °F /  -15.2 °C 1024.3 in /  34682.8 hPa NNW 44.4 mph /  71.5 km/h 44.4 mph /  71.5 km/h 54 % 0.0 in /  0 mm 0.0 W/m2 CLR
22:21 13.9 °F /  -10.1 °C 4.7 °F /  -15.2 °C 1024.6 in /  34693 hPa NNW 35.2 mph /  56.6 km/h 35.2 mph /  56.6 km/h 54 % 0.0 in /  0 mm 0.0 W/m2 CLR
22:26 13.9 °F /  -10.1 °C 5.0 °F /  -15 °C 1024.6 in /  34693 hPa WNW 33.8 mph /  54.4 km/h 33.8 mph /  54.4 km/h 55 % 0.0 in /  0 mm 0.0 W/m2 CLR
22:31 13.9 °F /  -10.1 °C 5.0 °F /  -15 °C 1024.6 in /  34693 hPa NNW 38.9 mph /  62.6 km/h 38.9 mph /  62.6 km/h 55 % 0.0 in /  0 mm 0.0 W/m2 CLR
22:36 13.9 °F /  -10.1 °C 5.0 °F /  -15 °C 1024.9 in /  34703.1 hPa NNW 35.2 mph /  56.6 km/h 35.2 mph /  56.6 km/h 55 % 0.0 in /  0 mm 0.0 W/m2 CLR
22:41 13.9 °F /  -10.1 °C 5.0 °F /  -15 °C 1024.6 in /  34693 hPa NNW 31.5 mph /  50.7 km/h 31.5 mph /  50.7 km/h 55 % 0.0 in /  0 mm 0.0 W/m2 CLR
22:46 13.9 °F /  -10.1 °C 5.0 °F /  -15 °C 1024.6 in /  34693 hPa NNW 31.5 mph /  50.7 km/h 31.5 mph /  50.7 km/h 55 % 0.0 in /  0 mm 0.0 W/m2 CLR
22:51 13.9 °F /  -10.1 °C 5.0 °F /  -15 °C 1024.6 in /  34693 hPa NW 33.3 mph /  53.6 km/h 33.3 mph /  53.6 km/h 55 % 0.0 in /  0 mm 0.0 W/m2 CLR
22:56 13.9 °F /  -10.1 °C 5.0 °F /  -15 °C 1024.9 in /  34703.1 hPa NW 31.5 mph /  50.7 km/h 31.5 mph /  50.7 km/h 55 % 0.0 in /  0 mm 0.0 W/m2 CLR
23:01 13.9 °F /  -10.1 °C 5.2 °F /  -14.9 °C 1024.9 in /  34703.1 hPa NNW 33.3 mph /  53.6 km/h 33.3 mph /  53.6 km/h 56 % 0.0 in /  0 mm 0.0 W/m2 CLR
23:06 13.9 °F /  -10.1 °C 5.2 °F /  -14.9 °C 1024.9 in /  34703.1 hPa NW 31.5 mph /  50.7 km/h 31.5 mph /  50.7 km/h 56 % 0.0 in /  0 mm 0.0 W/m2 CLR
23:11 13.9 °F /  -10.1 °C 5.2 °F /  -14.9 °C 1024.9 in /  34703.1 hPa NNW 31.5 mph /  50.7 km/h 31.5 mph /  50.7 km/h 56 % 0.0 in /  0 mm 0.0 W/m2 CLR
23:16 13.9 °F /  -10.1 °C 5.5 °F /  -14.7 °C 1024.9 in /  34703.1 hPa WNW 29.6 mph /  47.6 km/h 29.6 mph /  47.6 km/h 57 % 0.0 in /  0 mm 0.0 W/m2 CLR
23:21 13.9 °F /  -10.1 °C 5.5 °F /  -14.7 °C 1024.9 in /  34703.1 hPa NNW 22.2 mph /  35.7 km/h 22.2 mph /  35.7 km/h 57 % 0.0 in /  0 mm 0.0 W/m2 CLR
23:26 13.9 °F /  -10.1 °C 5.5 °F /  -14.7 °C 1024.9 in /  34703.1 hPa NNW 29.0 mph /  46.7 km/h 29.0 mph /  46.7 km/h 57 % 0.0 in /  0 mm 0.0 W/m2 CLR
23:31 13.9 °F /  -10.1 °C 5.5 °F /  -14.7 °C 1024.9 in /  34703.1 hPa NNW 24.1 mph /  38.8 km/h 24.1 mph /  38.8 km/h 57 % 0.0 in /  0 mm 0.0 W/m2 CLR
23:36 13.9 °F /  -10.1 °C 5.5 °F /  -14.7 °C 1024.9 in /  34703.1 hPa NNW 18.5 mph /  29.8 km/h 18.5 mph /  29.8 km/h 57 % 0.0 in /  0 mm 0.0 W/m2 CLR
23:41 13.9 °F /  -10.1 °C 5.8 °F /  -14.6 °C 1024.9 in /  34703.1 hPa NW 20.4 mph /  32.8 km/h 20.4 mph /  32.8 km/h 58 % 0.0 in /  0 mm 0.0 W/m2 CLR
23:46 13.9 °F /  -10.1 °C 5.8 °F /  -14.6 °C 1024.9 in /  34703.1 hPa NNW 35.2 mph /  56.6 km/h 35.2 mph /  56.6 km/h 58 % 0.0 in /  0 mm 0.0 W/m2 CLR
23:51 13.9 °F /  -10.1 °C 5.8 °F /  -14.6 °C 1024.9 in /  34703.1 hPa NNW 27.4 mph /  44.1 km/h 27.4 mph /  44.1 km/h 58 % 0.0 in /  0 mm 0.0 W/m2 CLR
23:56 13.9 °F /  -10.1 °C 5.8 °F /  -14.6 °C 1024.9 in /  34703.1 hPa NW 17.7 mph /  28.5 km/h 17.7 mph /  28.5 km/h 58 % 0.0 in /  0 mm 0.0 W/m2 CLR
Lo Temps de Massalio
Compliments of Weather Underground - 1.25 mb